createdAt,value
2023-01-25T00:01:56.176Z,99657.81
2023-01-25T00:04:26.995Z,99637.34
2023-01-25T00:06:57.916Z,99647.69
2023-01-25T00:09:29.445Z,99644.00
2023-01-25T00:11:59.959Z,99642.53
2023-01-25T00:14:30.560Z,99642.13
2023-01-25T00:17:03.250Z,99638.88
2023-01-25T00:19:33.538Z,99638.59
2023-01-25T00:22:03.735Z,99636.91
2023-01-25T00:24:33.821Z,99645.56
2023-01-25T00:27:04.896Z,99640.75
2023-01-25T00:29:35.238Z,99649.63
2023-01-25T00:32:44.220Z,99654.66
2023-01-25T00:35:15.588Z,99647.72
2023-01-25T00:37:50.642Z,99635.13
2023-01-25T00:40:21.624Z,99644.00
2023-01-25T00:42:51.717Z,99639.94
2023-01-25T00:45:23.005Z,99629.47
2023-01-25T00:47:58.631Z,99623.91
2023-01-25T00:50:28.839Z,99622.53
2023-01-25T00:53:00.448Z,99626.59
2023-01-25T00:55:30.702Z,99617.75
2023-01-25T00:58:00.923Z,99621.13
2023-01-25T01:00:31.047Z,99633.69
2023-01-25T01:03:04.004Z,99620.72
2023-01-25T01:05:36.238Z,99629.56
2023-01-25T01:08:07.068Z,99620.03
2023-01-25T01:10:37.117Z,99627.47
2023-01-25T01:13:07.437Z,99621.81
2023-01-25T01:15:40.133Z,99616.53
2023-01-25T01:18:12.728Z,99621.59
2023-01-25T01:20:42.746Z,99622.84
2023-01-25T01:23:12.818Z,99625.47
2023-01-25T01:25:42.874Z,99620.03
2023-01-25T01:28:13.198Z,99623.66
2023-01-25T01:30:43.530Z,99625.34
2023-01-25T01:33:16.678Z,99621.44
2023-01-25T01:35:46.970Z,99615.69
2023-01-25T01:38:17.055Z,99610.34
2023-01-25T01:40:48.731Z,99618.97
2023-01-25T01:43:22.874Z,99613.38
2023-01-25T01:45:58.390Z,99618.59
2023-01-25T01:48:44.094Z,99614.06
2023-01-25T01:51:22.184Z,99624.63
2023-01-25T01:53:58.551Z,99627.25
2023-01-25T01:56:37.233Z,99616.19
2023-01-25T01:59:09.873Z,99624.84
2023-01-25T02:01:40.895Z,99619.56
2023-01-25T02:04:16.974Z,99613.38
2023-01-25T02:06:53.395Z,99609.13
2023-01-25T02:09:28.863Z,99615.00
2023-01-25T02:12:01.184Z,99618.09
2023-01-25T02:14:34.222Z,99612.38
2023-01-25T02:17:06.171Z,99623.66
2023-01-25T02:19:53.441Z,99613.59
2023-01-25T02:22:33.865Z,99608.75
2023-01-25T02:25:11.122Z,99610.38
2023-01-25T02:27:47.370Z,99602.91
2023-01-25T02:30:18.372Z,99604.09
2023-01-25T02:32:48.550Z,99602.41
2023-01-25T02:35:24.915Z,99598.28
2023-01-25T02:37:55.336Z,99607.50
2023-01-25T02:40:27.977Z,99601.47
2023-01-25T02:42:58.117Z,99605.31
2023-01-25T02:45:33.012Z,99591.09
2023-01-25T02:48:03.006Z,99589.69
2023-01-25T02:50:33.193Z,99593.84
2023-01-25T02:53:03.174Z,99590.41
2023-01-25T02:55:36.068Z,99595.44
2023-01-25T02:58:06.308Z,99586.19
2023-01-25T03:00:36.556Z,99593.88
2023-01-25T03:03:07.112Z,99591.34
2023-01-25T03:05:37.741Z,99589.00
2023-01-25T03:08:08.075Z,99588.81
2023-01-25T03:10:40.737Z,99580.47
2023-01-25T03:13:11.381Z,99575.53
2023-01-25T03:15:41.914Z,99578.16
2023-01-25T03:18:11.996Z,99576.25
2023-01-25T03:20:42.033Z,99573.22
2023-01-25T03:23:12.267Z,99562.75
2023-01-25T03:25:44.955Z,99559.25
2023-01-25T03:28:19.621Z,99555.38
2023-01-25T03:30:56.198Z,99547.84
2023-01-25T03:33:26.433Z,99555.81
2023-01-25T03:35:57.740Z,99549.34
2023-01-25T03:38:29.634Z,99541.91
2023-01-25T03:41:04.655Z,99553.38
2023-01-25T03:43:35.965Z,99544.56
2023-01-25T03:46:06.889Z,99548.16
2023-01-25T03:48:37.902Z,99532.94
2023-01-25T03:51:09.015Z,99541.31
2023-01-25T03:53:39.868Z,99545.75
2023-01-25T03:56:20.602Z,99540.72
2023-01-25T03:59:04.286Z,99536.47
2023-01-25T04:01:36.232Z,99540.72
2023-01-25T04:04:07.081Z,99537.28
2023-01-25T04:06:38.108Z,99535.28
2023-01-25T04:09:08.988Z,99532.06
2023-01-25T04:11:45.880Z,99538.09
2023-01-25T04:14:16.849Z,99535.38
2023-01-25T04:16:59.864Z,99528.41
2023-01-25T04:19:40.486Z,99542.91
2023-01-25T04:22:14.407Z,99544.75
2023-01-25T04:24:44.831Z,99533.22
2023-01-25T04:27:18.583Z,99533.03
2023-01-25T04:29:58.778Z,99530.44
2023-01-25T04:32:30.411Z,99531.72
2023-01-25T04:35:02.032Z,99526.81
2023-01-25T04:37:33.271Z,99529.91
2023-01-25T04:40:04.248Z,99532.16
2023-01-25T04:42:41.823Z,99528.72
2023-01-25T04:45:13.807Z,99530.47
2023-01-25T04:47:44.385Z,99523.78
2023-01-25T04:50:15.204Z,99525.50
2023-01-25T04:52:45.491Z,99529.13
2023-01-25T04:55:15.708Z,99523.38
2023-01-25T04:57:52.871Z,99521.31
2023-01-25T05:00:23.944Z,99523.78
2023-01-25T05:02:54.343Z,99523.78
2023-01-25T05:05:25.524Z,99521.50
2023-01-25T05:07:57.737Z,99521.19
2023-01-25T05:10:27.859Z,99526.41
2023-01-25T05:13:32.862Z,99520.06
2023-01-25T05:16:12.976Z,99526.00
2023-01-25T05:18:48.829Z,99516.56
2023-01-25T05:21:36.551Z,99511.13
2023-01-25T05:24:07.966Z,99515.56
2023-01-25T05:26:50.973Z,99513.34
2023-01-25T05:29:23.685Z,99506.28
2023-01-25T05:32:02.881Z,99500.28
2023-01-25T05:34:33.456Z,99504.69
2023-01-25T05:37:04.936Z,99507.88
2023-01-25T05:39:35.272Z,99498.84
2023-01-25T05:42:06.619Z,99503.09
2023-01-25T05:44:39.688Z,99505.69
2023-01-25T05:47:16.017Z,99499.78
2023-01-25T05:49:47.085Z,99502.06
2023-01-25T05:52:32.053Z,99506.09
2023-01-25T05:55:02.836Z,99505.28
2023-01-25T05:57:33.700Z,99508.53
2023-01-25T06:00:09.796Z,99502.59
2023-01-25T06:02:43.813Z,99502.25
2023-01-25T06:05:19.307Z,99508.28
2023-01-25T06:07:49.443Z,99499.06
2023-01-25T06:10:21.276Z,99493.81
2023-01-25T06:12:53.438Z,99493.03
2023-01-25T06:15:26.280Z,99497.56
2023-01-25T06:17:59.163Z,99501.44
2023-01-25T06:20:43.244Z,99503.06
2023-01-25T06:23:13.368Z,99495.31
2023-01-25T06:25:43.617Z,99496.63
2023-01-25T06:28:14.323Z,99493.59
2023-01-25T06:30:47.000Z,99498.53
2023-01-25T06:33:17.227Z,99500.75
2023-01-25T06:35:47.582Z,99495.63
2023-01-25T06:38:17.820Z,99484.34
2023-01-25T06:40:48.001Z,99487.34
2023-01-25T06:43:18.097Z,99485.56
2023-01-25T06:45:50.922Z,99490.50
2023-01-25T06:48:21.782Z,99493.41
2023-01-25T06:50:58.156Z,99489.16
2023-01-25T06:53:30.217Z,99488.22
2023-01-25T06:56:02.709Z,99480.88
2023-01-25T06:58:34.506Z,99480.25
2023-01-25T07:01:11.637Z,99480.38
2023-01-25T07:03:42.101Z,99475.84
2023-01-25T07:06:14.601Z,99479.97
2023-01-25T07:08:44.632Z,99465.63
2023-01-25T07:11:16.701Z,99476.88
2023-01-25T07:13:49.294Z,99478.28
2023-01-25T07:16:23.445Z,99468.59
2023-01-25T07:18:53.614Z,99472.81
2023-01-25T07:21:26.504Z,99471.09
2023-01-25T07:23:57.300Z,99468.97
2023-01-25T07:26:29.216Z,99465.34
2023-01-25T07:29:02.207Z,99460.09
2023-01-25T07:31:35.365Z,99466.31
2023-01-25T07:34:05.861Z,99467.38
2023-01-25T07:36:36.290Z,99464.25
2023-01-25T07:39:06.882Z,99460.81
2023-01-25T07:41:37.029Z,99463.72
2023-01-25T07:44:07.342Z,99460.72
2023-01-25T07:46:44.687Z,99457.78
2023-01-25T07:49:15.149Z,99454.69
2023-01-25T07:51:45.163Z,99456.72
2023-01-25T07:54:15.731Z,99459.00
2023-01-25T07:56:45.872Z,99455.22
2023-01-25T07:59:16.368Z,99456.09
2023-01-25T08:01:49.246Z,99463.13
2023-01-25T08:04:19.351Z,99458.91
2023-01-25T08:06:49.575Z,99453.66
2023-01-25T08:09:21.335Z,99463.53
2023-01-25T08:11:53.651Z,99461.06
2023-01-25T08:14:24.902Z,99457.22
2023-01-25T08:16:57.742Z,99460.25
2023-01-25T08:19:28.339Z,99454.50
2023-01-25T08:21:58.406Z,99457.50
2023-01-25T08:24:28.582Z,99459.91
2023-01-25T08:26:58.691Z,99461.91
2023-01-25T08:29:28.991Z,99465.34
2023-01-25T08:32:04.527Z,99463.31
2023-01-25T08:34:34.893Z,99463.47
2023-01-25T08:37:05.332Z,99460.72
2023-01-25T08:39:35.480Z,99458.63
2023-01-25T08:42:06.351Z,99462.53
2023-01-25T08:44:36.397Z,99464.53
2023-01-25T08:47:09.000Z,99450.53
2023-01-25T08:49:39.257Z,99457.88
2023-01-25T08:52:10.096Z,99447.13
2023-01-25T08:54:43.035Z,99444.19
2023-01-25T08:57:15.114Z,99445.97
2023-01-25T08:59:45.240Z,99440.72
2023-01-25T09:02:19.582Z,99437.72
2023-01-25T09:04:50.096Z,99420.56
2023-01-25T09:07:20.402Z,99427.22
2023-01-25T09:09:51.373Z,99427.56
2023-01-25T09:12:21.546Z,99424.63
2023-01-25T09:14:52.148Z,99430.31
2023-01-25T09:17:25.575Z,99423.25
2023-01-25T09:19:55.747Z,99422.25
2023-01-25T09:22:25.886Z,99430.47
2023-01-25T09:24:56.693Z,99429.53
2023-01-25T09:27:27.226Z,99425.16
2023-01-25T09:30:02.100Z,99432.22
2023-01-25T09:32:36.252Z,99437.59
2023-01-25T09:35:07.749Z,99427.72
2023-01-25T09:37:39.044Z,99420.72
2023-01-25T09:40:21.427Z,99417.66
2023-01-25T09:43:04.364Z,99416.16
2023-01-25T09:45:37.383Z,99417.47
2023-01-25T09:49:06.337Z,99411.38
2023-01-25T09:52:00.668Z,99419.28
2023-01-25T09:54:42.320Z,99420.13
2023-01-25T09:57:24.451Z,99419.47
2023-01-25T09:59:57.125Z,99425.91
2023-01-25T10:02:44.054Z,99416.19
2023-01-25T10:05:25.916Z,99424.69
2023-01-25T10:08:07.236Z,99420.69
2023-01-25T10:10:42.572Z,99414.03
2023-01-25T10:13:16.415Z,99407.56
2023-01-25T10:15:53.625Z,99411.22
2023-01-25T10:18:36.556Z,99413.00
2023-01-25T10:21:21.643Z,99403.91
2023-01-25T10:24:31.262Z,99399.75
2023-01-25T10:27:19.775Z,99398.13
2023-01-25T10:29:52.455Z,99404.47
2023-01-25T10:32:28.737Z,99399.91
2023-01-25T10:35:04.286Z,99394.53
2023-01-25T10:37:39.032Z,99383.66
2023-01-25T10:40:22.657Z,99382.28
2023-01-25T10:43:00.036Z,99381.25
2023-01-25T10:45:30.446Z,99380.53
2023-01-25T10:48:10.181Z,99378.72
2023-01-25T10:50:53.666Z,99371.28
2023-01-25T10:53:36.918Z,99372.06
2023-01-25T10:56:31.272Z,99362.22
2023-01-25T10:59:21.652Z,99367.59
2023-01-25T11:01:52.213Z,99362.09
2023-01-25T11:04:39.929Z,99356.81
2023-01-25T11:07:31.557Z,99355.00
2023-01-25T11:10:04.604Z,99352.25
2023-01-25T11:12:34.806Z,99350.66
2023-01-25T11:15:28.920Z,99348.59
2023-01-25T11:18:09.743Z,99345.38
2023-01-25T11:20:40.029Z,99355.69
2023-01-25T11:23:27.175Z,99347.88
2023-01-25T11:26:16.773Z,99344.66
2023-01-25T11:28:49.184Z,99341.00
2023-01-25T11:31:23.304Z,99340.28
2023-01-25T11:33:53.897Z,99335.22
2023-01-25T11:36:36.408Z,99331.72
2023-01-25T11:39:24.980Z,99320.94
2023-01-25T11:42:15.654Z,99317.13
2023-01-25T11:45:37.429Z,99312.88
2023-01-25T11:48:31.593Z,99307.50
2023-01-25T11:51:10.133Z,99303.16
2023-01-25T11:54:03.906Z,99305.25
2023-01-25T11:56:53.712Z,99301.78
2023-01-25T11:59:53.401Z,99296.50
2023-01-25T12:03:01.898Z,99283.44
2023-01-25T12:05:51.369Z,99267.94
2023-01-25T12:08:44.753Z,99267.91
2023-01-25T12:11:36.053Z,99268.72
2023-01-25T12:14:23.034Z,99265.41
2023-01-25T12:17:35.622Z,99254.13
2023-01-25T12:20:34.461Z,99249.03
2023-01-25T12:23:34.158Z,99240.06
2023-01-25T12:26:27.869Z,99225.47
2023-01-25T12:29:13.416Z,99222.75
2023-01-25T12:31:52.312Z,99206.72
2023-01-25T12:34:36.091Z,99208.09
2023-01-25T12:37:17.233Z,99205.56
2023-01-25T12:39:55.301Z,99194.13
2023-01-25T12:42:35.415Z,99197.16
2023-01-25T12:45:17.106Z,99193.84
2023-01-25T12:47:54.940Z,99184.44
2023-01-25T12:50:36.266Z,99189.72
2023-01-25T12:53:20.699Z,99184.59
2023-01-25T12:55:52.769Z,99179.25
2023-01-25T12:58:37.836Z,99179.69
2023-01-25T13:01:22.649Z,99174.22
2023-01-25T13:04:12.544Z,99167.56
2023-01-25T13:06:55.514Z,99167.56
2023-01-25T13:09:36.727Z,99162.50
2023-01-25T13:12:08.689Z,99150.84
2023-01-25T13:14:41.530Z,99151.88
2023-01-25T13:17:25.447Z,99151.88
2023-01-25T13:19:56.476Z,99150.94
2023-01-25T13:23:02.285Z,99142.34
2023-01-25T13:25:32.815Z,99141.09
2023-01-25T13:28:43.597Z,99138.38
2023-01-25T13:31:52.481Z,99132.78
2023-01-25T13:35:00.627Z,99130.81
2023-01-25T13:37:33.093Z,99133.47
2023-01-25T13:40:27.039Z,99135.41
2023-01-25T13:43:05.247Z,99121.22
2023-01-25T13:45:42.429Z,99116.97
2023-01-25T13:48:21.844Z,99122.59
2023-01-25T13:50:57.820Z,99125.22
2023-01-25T13:53:36.001Z,99117.66
2023-01-25T13:56:36.215Z,99116.88
2023-01-25T13:59:06.823Z,99111.47
2023-01-25T14:01:39.781Z,99110.91
2023-01-25T14:04:10.497Z,99108.06
2023-01-25T14:06:43.315Z,99108.16
2023-01-25T14:09:20.748Z,99097.50
2023-01-25T14:12:00.481Z,99101.53
2023-01-25T14:14:36.139Z,99098.00
2023-01-25T14:17:21.168Z,99093.84
2023-01-25T14:19:57.800Z,99090.22
2023-01-25T14:22:30.453Z,99089.84
2023-01-25T14:25:17.105Z,99095.34
2023-01-25T14:27:54.022Z,99096.75
2023-01-25T14:30:27.780Z,99101.88
2023-01-25T14:33:03.487Z,99101.88
2023-01-25T14:35:42.850Z,99095.34
2023-01-25T14:38:32.183Z,99098.00
2023-01-25T14:41:14.082Z,99096.28
2023-01-25T14:43:53.541Z,99092.97
2023-01-25T14:46:46.980Z,99091.34
2023-01-25T14:49:28.715Z,99092.97
2023-01-25T14:52:06.566Z,99092.03
2023-01-25T14:54:40.652Z,99092.72
2023-01-25T14:57:39.379Z,99093.38
2023-01-25T15:00:27.770Z,99092.03
2023-01-25T15:03:01.695Z,99079.28
2023-01-25T15:05:35.089Z,99073.63
2023-01-25T15:08:19.227Z,99074.44
2023-01-25T15:10:58.435Z,99072.59
2023-01-25T15:13:30.858Z,99065.63
2023-01-25T15:16:06.425Z,99061.06
2023-01-25T15:18:51.360Z,99055.09
2023-01-25T15:21:26.988Z,99054.19
2023-01-25T15:24:05.109Z,99048.97
2023-01-25T15:26:38.616Z,99046.38
2023-01-25T15:29:17.412Z,99037.06
2023-01-25T15:31:53.552Z,99040.50
2023-01-25T15:34:30.467Z,99043.94
2023-01-25T15:37:00.924Z,99042.78
2023-01-25T15:39:32.739Z,99033.69
2023-01-25T15:42:03.205Z,99032.19
2023-01-25T15:44:33.528Z,99024.78
2023-01-25T15:47:06.640Z,99026.50
2023-01-25T15:49:39.712Z,99018.97
2023-01-25T15:52:12.842Z,99010.38
2023-01-25T15:54:51.792Z,99012.88
2023-01-25T15:57:31.416Z,99000.06
2023-01-25T16:00:02.794Z,99004.06
2023-01-25T16:02:37.376Z,99005.22
2023-01-25T16:05:08.644Z,99006.00
2023-01-25T16:07:42.904Z,99001.22
2023-01-25T16:10:24.562Z,98996.50
2023-01-25T16:12:54.863Z,98995.16
2023-01-25T16:15:25.140Z,98988.88
2023-01-25T16:17:58.198Z,98981.78
2023-01-25T16:20:28.547Z,98987.72
2023-01-25T16:22:58.713Z,98977.31
2023-01-25T16:25:29.140Z,98975.97
2023-01-25T16:27:59.676Z,98974.69
2023-01-25T16:30:33.017Z,98968.97
2023-01-25T16:33:06.240Z,98972.63
2023-01-25T16:35:36.826Z,98980.28
2023-01-25T16:38:07.068Z,98972.59
2023-01-25T16:40:39.939Z,98967.72
2023-01-25T16:43:11.829Z,98969.53
2023-01-25T16:45:44.831Z,98968.50
2023-01-25T16:48:18.702Z,98974.81
2023-01-25T16:50:53.652Z,98972.53
2023-01-25T16:53:24.221Z,98967.34
2023-01-25T16:55:54.632Z,98967.25
2023-01-25T16:58:25.128Z,98971.59
2023-01-25T17:00:55.468Z,98962.09
2023-01-25T17:03:29.467Z,98968.03
2023-01-25T17:06:01.014Z,98968.25
2023-01-25T17:08:31.347Z,98967.94
2023-01-25T17:11:10.694Z,98961.63
2023-01-25T17:13:41.349Z,98951.56
2023-01-25T17:16:11.840Z,98954.09
2023-01-25T17:18:57.853Z,98954.53
2023-01-25T17:21:30.213Z,98950.13
2023-01-25T17:24:03.513Z,98962.53
2023-01-25T17:26:35.844Z,98957.75
2023-01-25T17:29:06.195Z,98948.63
2023-01-25T17:31:44.459Z,98943.34
2023-01-25T17:34:22.411Z,98940.16
2023-01-25T17:36:54.463Z,98936.97
2023-01-25T17:39:24.980Z,98933.19
2023-01-25T17:41:55.740Z,98931.00
2023-01-25T17:44:27.087Z,98928.72
2023-01-25T17:46:57.411Z,98923.47
2023-01-25T17:49:30.991Z,98926.31
2023-01-25T17:52:02.455Z,98930.69
2023-01-25T17:54:32.745Z,98922.00
2023-01-25T17:57:03.105Z,98920.50
2023-01-25T17:59:34.066Z,98909.66
2023-01-25T18:02:05.881Z,98909.66
2023-01-25T18:04:41.325Z,98903.84
2023-01-25T18:07:11.536Z,98901.53
2023-01-25T18:09:41.874Z,98897.78
2023-01-25T18:12:13.167Z,98901.97
2023-01-25T18:14:45.564Z,98904.16
2023-01-25T18:17:16.072Z,98906.13
2023-01-25T18:19:49.239Z,98907.47
2023-01-25T18:22:20.089Z,98898.09
2023-01-25T18:24:50.651Z,98892.50
2023-01-25T18:27:24.793Z,98893.88
2023-01-25T18:30:03.624Z,98890.47
2023-01-25T18:32:35.324Z,98881.22
2023-01-25T18:35:09.679Z,98884.84
2023-01-25T18:37:43.604Z,98883.59
2023-01-25T18:40:18.874Z,98880.06
2023-01-25T18:42:49.475Z,98869.31
2023-01-25T18:45:20.300Z,98870.34
2023-01-25T18:47:50.594Z,98879.34
2023-01-25T18:50:24.081Z,98869.44
2023-01-25T18:52:55.801Z,98860.50
2023-01-25T18:55:27.817Z,98865.19
2023-01-25T18:58:04.062Z,98865.19
2023-01-25T19:00:34.588Z,98859.94
2023-01-25T19:03:04.739Z,98864.25
2023-01-25T19:05:38.086Z,98859.81
2023-01-25T19:08:08.837Z,98863.13
2023-01-25T19:10:39.265Z,98855.25
2023-01-25T19:13:09.865Z,98859.81
2023-01-25T19:15:41.328Z,98858.78
2023-01-25T19:18:11.913Z,98852.84
2023-01-25T19:20:45.430Z,98850.34
2023-01-25T19:23:15.695Z,98847.28
2023-01-25T19:25:45.759Z,98853.19
2023-01-25T19:28:15.967Z,98848.97
2023-01-25T19:30:46.151Z,98849.19
2023-01-25T19:33:16.740Z,98845.78
2023-01-25T19:35:49.841Z,98850.47
2023-01-25T19:38:20.041Z,98845.44
2023-01-25T19:40:50.452Z,98837.78
2023-01-25T19:43:20.763Z,98841.34
2023-01-25T19:45:51.066Z,98849.09
2023-01-25T19:48:21.339Z,98839.84
2023-01-25T19:50:54.129Z,98837.00
2023-01-25T19:53:24.493Z,98831.63
2023-01-25T19:55:54.703Z,98833.66
2023-01-25T19:58:29.523Z,98826.25
2023-01-25T20:01:07.508Z,98818.47
2023-01-25T20:03:38.308Z,98819.63
2023-01-25T20:06:13.572Z,98820.91
2023-01-25T20:08:47.638Z,98815.28
2023-01-25T20:11:22.048Z,98810.72
2023-01-25T20:13:55.200Z,98817.47
2023-01-25T20:16:27.465Z,98810.50
2023-01-25T20:18:59.588Z,98805.13
2023-01-25T20:21:35.448Z,98807.63
2023-01-25T20:24:10.659Z,98810.38
2023-01-25T20:26:44.145Z,98804.88
2023-01-25T20:29:15.725Z,98800.09
2023-01-25T20:31:49.145Z,98796.91
2023-01-25T20:34:22.425Z,98801.44
2023-01-25T20:36:55.731Z,98785.03
2023-01-25T20:39:26.359Z,98787.78
2023-01-25T20:41:58.600Z,98773.84
2023-01-25T20:44:30.076Z,98774.06
2023-01-25T20:47:00.628Z,98776.81
2023-01-25T20:49:32.121Z,98779.22
2023-01-25T20:52:05.587Z,98772.81
2023-01-25T20:54:36.127Z,98776.09
2023-01-25T20:57:06.583Z,98769.25
2023-01-25T20:59:37.126Z,98774.75
2023-01-25T21:02:07.441Z,98781.38
2023-01-25T21:04:37.786Z,98773.03
2023-01-25T21:07:13.375Z,98769.75
2023-01-25T21:09:43.583Z,98754.78
2023-01-25T21:12:14.777Z,98747.47
2023-01-25T21:14:45.003Z,98742.91
2023-01-25T21:17:15.752Z,98734.09
2023-01-25T21:19:46.036Z,98739.59
2023-01-25T21:22:19.644Z,98732.75
2023-01-25T21:24:49.728Z,98747.47
2023-01-25T21:27:20.013Z,98744.84
2023-01-25T21:29:50.099Z,98742.09
2023-01-25T21:32:20.834Z,98732.47
2023-01-25T21:34:51.206Z,98730.00
2023-01-25T21:37:24.315Z,98732.28
2023-01-25T21:39:54.551Z,98724.06
2023-01-25T21:42:24.587Z,98728.41
2023-01-25T21:45:07.153Z,98715.63
2023-01-25T21:47:37.466Z,98711.19
2023-01-25T21:50:20.925Z,98717.00
2023-01-25T21:52:53.755Z,98709.69
2023-01-25T21:55:24.462Z,98714.50
2023-01-25T21:57:54.729Z,98709.69
2023-01-25T22:00:25.280Z,98706.81
2023-01-25T22:02:55.373Z,98699.88
2023-01-25T22:05:25.814Z,98699.06
2023-01-25T22:07:58.626Z,98696.22
2023-01-25T22:10:29.295Z,98704.88
2023-01-25T22:12:59.621Z,98690.97
2023-01-25T22:15:29.903Z,98692.09
2023-01-25T22:18:00.307Z,98692.56
2023-01-25T22:20:30.742Z,98692.53
2023-01-25T22:23:03.667Z,98692.41
2023-01-25T22:25:34.022Z,98688.63
2023-01-25T22:28:07.700Z,98687.47
2023-01-25T22:30:38.140Z,98695.13
2023-01-25T22:33:08.527Z,98692.84
2023-01-25T22:35:38.719Z,98684.00
2023-01-25T22:38:11.427Z,98677.84
2023-01-25T22:40:41.480Z,98681.63
2023-01-25T22:43:11.572Z,98683.31
2023-01-25T22:45:42.078Z,98685.63
2023-01-25T22:48:12.411Z,98675.50
2023-01-25T22:50:42.833Z,98669.03
2023-01-25T22:53:15.949Z,98677.16
2023-01-25T22:55:46.152Z,98666.66
2023-01-25T22:58:16.251Z,98669.63
2023-01-25T23:00:46.458Z,98666.56
2023-01-25T23:03:16.887Z,98662.31
2023-01-25T23:05:47.233Z,98663.00
2023-01-25T23:08:20.032Z,98664.81
2023-01-25T23:10:50.458Z,98667.66
2023-01-25T23:13:20.871Z,98666.03
2023-01-25T23:15:51.058Z,98666.81
2023-01-25T23:18:36.459Z,98660.13
2023-01-25T23:21:07.155Z,98661.81
2023-01-25T23:23:43.421Z,98655.78
2023-01-25T23:26:14.490Z,98661.03
2023-01-25T23:28:50.934Z,98657.53
2023-01-25T23:31:22.675Z,98645.16
2023-01-25T23:33:55.015Z,98642.34
2023-01-25T23:36:27.955Z,98637.97
2023-01-25T23:39:02.016Z,98633.66
2023-01-25T23:41:33.864Z,98644.63
2023-01-25T23:44:04.319Z,98641.66
2023-01-25T23:46:34.645Z,98631.25
2023-01-25T23:49:04.710Z,98640.19
2023-01-25T23:51:34.887Z,98631.19
2023-01-25T23:54:07.918Z,98628.94
2023-01-25T23:56:38.089Z,98625.34
2023-01-25T23:59:08.528Z,98615.25
